Time;durP1;ratioP1;P1;durP2;ratioP2;P2;SDS_P1;SDS_P2;PMS_P1;PMS_P2;Temp;Humidity;BMP_temperature;BMP_pressure;BME280_temperature;BME280_humidity;BME280_pressure;Samples;Min_cycle;Max_cycle;Signal;HPM_P1;HPM_P2
2021/11/08 00:01:17;;;;;;;19.75;13.30;;;;;;;10.78;69.08;101288.91;4963465;28;20480;-59
2021/11/08 00:03:47;;;;;;;19.17;12.38;;;;;;;10.77;69.10;101285.41;4961115;28;20047;-58
2021/11/08 00:06:17;;;;;;;17.67;12.90;;;;;;;10.68;69.34;101292.88;4972631;28;20047;-59
2021/11/08 00:08:43;;;;;;;17.42;12.15;;;;;;;10.62;69.58;101286.16;4976877;28;20550;-59
2021/11/08 00:11:10;;;;;;;17.23;12.52;;;;;;;10.64;69.31;101275.59;4977229;28;20065;-59
2021/11/08 00:13:37;;;;;;;18.02;12.43;;;;;;;10.60;69.36;101257.38;4976944;28;20117;-59
2021/11/08 00:16:56;;;;;;;15.88;11.80;;;;;;;10.60;69.21;101257.38;4976651;28;20053;-58
2021/11/08 00:21:46;;;;;;;18.80;13.10;;;;;;;10.58;69.13;101237.38;4966050;28;20528;-58
2021/11/08 00:24:16;;;;;;;17.50;12.32;;;;;;;10.58;69.22;101250.50;4976939;28;20063;-58
2021/11/08 00:26:44;;;;;;;17.33;12.60;;;;;;;10.55;69.11;101261.13;4976807;28;20499;-59
2021/11/08 00:29:10;;;;;;;17.10;12.15;;;;;;;10.53;69.15;101263.81;4976755;28;20054;-59
2021/11/08 00:31:37;;;;;;;18.70;12.05;;;;;;;10.52;69.24;101258.66;4976825;28;20069;-62
2021/11/08 00:34:04;;;;;;;18.63;12.23;;;;;;;10.48;69.23;101265.81;4976532;28;20055;-59
2021/11/08 00:36:30;;;;;;;18.90;12.30;;;;;;;10.35;69.65;101268.16;4975641;28;20508;-59
2021/11/08 00:38:58;;;;;;;15.75;11.95;;;;;;;10.08;70.32;101265.91;4976482;28;20550;-59
2021/11/08 00:41:24;;;;;;;16.65;12.20;;;;;;;10.12;70.03;101269.25;4976667;28;20067;-59
2021/11/08 00:43:51;;;;;;;16.00;12.40;;;;;;;10.20;69.83;101266.25;4976514;28;20046;-59
2021/11/08 00:46:18;;;;;;;17.88;13.00;;;;;;;10.21;69.76;101262.69;4976355;28;20051;-59
2021/11/08 00:48:45;;;;;;;19.58;12.95;;;;;;;10.26;69.50;101263.34;4976816;28;20046;-60
2021/11/08 00:51:13;;;;;;;15.25;12.88;;;;;;;10.27;69.23;101263.28;4976519;28;20051;-59
2021/11/08 00:53:41;;;;;;;17.92;12.15;;;;;;;10.25;69.31;101259.88;4965564;28;20054;-58
2021/11/08 00:56:13;;;;;;;17.98;13.13;;;;;;;10.25;69.33;101256.41;4976495;28;20042;-63
2021/11/08 00:58:42;;;;;;;17.33;12.80;;;;;;;10.22;69.52;101256.53;4976246;28;20051;-62
2021/11/08 01:01:12;;;;;;;21.63;12.75;;;;;;;10.19;69.45;101252.28;4976462;28;20050;-60
2021/11/08 01:03:44;;;;;;;17.52;12.15;;;;;;;10.21;69.45;101258.31;4976104;28;20098;-59
2021/11/08 01:06:13;;;;;;;17.20;12.73;;;;;;;10.18;69.47;101247.94;4975505;28;20051;-63
2021/11/08 01:08:40;;;;;;;16.90;12.52;;;;;;;10.17;69.45;101253.28;4974939;28;20487;-60
2021/11/08 01:11:08;;;;;;;21.15;12.13;;;;;;;10.13;69.21;101249.94;4976118;28;20454;-59
2021/11/08 01:13:35;;;;;;;16.98;12.00;;;;;;;10.13;69.47;101255.19;4976112;28;20057;-59
2021/11/08 01:16:03;;;;;;;14.90;10.85;;;;;;;10.07;69.59;101239.75;4975606;28;20047;-59
2021/11/08 01:18:30;;;;;;;14.35;10.90;;;;;;;10.05;69.58;101238.97;4975915;28;20109;-59
2021/11/08 01:20:57;;;;;;;14.52;11.63;;;;;;;10.01;69.37;101227.78;4975976;28;20499;-59
2021/11/08 01:23:26;;;;;;;16.63;11.15;;;;;;;10.02;69.39;101225.97;4976016;28;20097;-58
2021/11/08 01:26:07;;;;;;;16.30;12.25;;;;;;;10.02;69.33;101223.38;4974635;28;20070;-64
2021/11/08 01:28:57;;;;;;;16.58;12.02;;;;;;;10.06;69.23;101222.31;4975925;28;20385;-60
2021/11/08 01:31:23;;;;;;;17.13;11.77;;;;;;;10.03;69.29;101207.59;4975418;28;20047;-59
2021/11/08 01:33:52;;;;;;;16.50;12.23;;;;;;;10.02;69.39;101207.63;4975745;28;20491;-63
2021/11/08 01:36:25;;;;;;;16.20;11.68;;;;;;;9.99;69.31;101195.50;4975601;28;20079;-60
2021/11/08 01:38:55;;;;;;;17.67;12.60;;;;;;;10.00;69.41;101196.38;4974520;28;20500;-59
2021/11/08 01:41:24;;;;;;;17.95;11.98;;;;;;;9.98;69.44;101185.97;4975565;28;20058;-59
2021/11/08 01:43:51;;;;;;;17.40;11.98;;;;;;;9.95;69.47;101186.97;4975519;28;20047;-63
2021/11/08 01:46:20;;;;;;;16.25;12.20;;;;;;;9.94;69.44;101181.78;4975190;28;20101;-59
2021/11/08 01:48:53;;;;;;;17.85;12.82;;;;;;;9.94;69.26;101181.78;4974292;28;20042;-59
2021/11/08 01:51:35;;;;;;;16.42;12.15;;;;;;;9.91;69.44;101174.06;4973856;28;20138;-61
2021/11/08 01:54:09;;;;;;;16.23;11.98;;;;;;;9.87;69.36;101169.91;4975308;28;20046;-58
2021/11/08 01:56:37;;;;;;;16.83;12.02;;;;;;;9.83;69.25;101161.31;4975200;28;20054;-59
2021/11/08 01:59:03;;;;;;;14.65;11.85;;;;;;;9.78;69.17;101153.66;4975199;28;20057;-63
2021/11/08 02:01:30;;;;;;;17.88;12.93;;;;;;;9.74;69.27;101149.50;4975089;28;20046;-64
2021/11/08 02:03:57;;;;;;;15.43;11.43;;;;;;;9.72;69.14;101142.63;4975078;28;20051;-58
2021/11/08 02:06:24;;;;;;;15.57;11.88;;;;;;;9.69;69.02;101135.75;4975291;28;20058;-59
2021/11/08 02:08:51;;;;;;;18.50;11.90;;;;;;;9.68;68.92;101127.97;4974017;28;20110;-59
2021/11/08 02:11:20;;;;;;;17.52;12.25;;;;;;;9.66;68.94;101135.06;4975244;28;20046;-58
2021/11/08 02:13:48;;;;;;;16.13;12.95;;;;;;;9.67;68.88;101142.84;4974803;28;20046;-58
2021/11/08 02:16:15;;;;;;;20.17;11.95;;;;;;;9.63;68.87;101134.25;4974735;28;20462;-58
2021/11/08 02:18:43;;;;;;;17.27;12.07;;;;;;;9.62;68.97;101129.09;4974720;28;20050;-58
2021/11/08 02:21:12;;;;;;;15.65;11.25;;;;;;;9.60;68.75;101136.19;4974877;28;20104;-60
2021/11/08 02:23:44;;;;;;;16.17;11.40;;;;;;;9.54;68.41;101147.78;4973969;28;20047;-58
2021/11/08 02:26:15;;;;;;;17.35;12.02;;;;;;;9.53;68.43;101147.88;4974717;28;20039;-59
2021/11/08 02:28:44;;;;;;;14.52;11.88;;;;;;;9.53;68.56;101145.25;4974019;28;20042;-59
2021/11/08 02:31:15;;;;;;;18.45;12.93;;;;;;;9.44;68.88;101141.28;4974212;28;20043;-64
2021/11/08 02:33:47;;;;;;;14.48;11.18;;;;;;;9.49;68.61;101144.53;4974504;28;20043;-59
2021/11/08 02:36:14;;;;;;;19.98;11.90;;;;;;;9.46;68.54;101142.06;4974564;28;20051;-59
2021/11/08 02:38:45;;;;;;;14.77;11.52;;;;;;;9.45;68.56;101145.59;4974396;28;20058;-59
2021/11/08 02:41:13;;;;;;;16.13;11.00;;;;;;;9.43;68.65;101147.44;4973266;28;20133;-59
2021/11/08 02:43:40;;;;;;;16.92;12.80;;;;;;;9.43;68.63;101148.28;4974362;28;20047;-59
2021/11/08 02:46:26;;;;;;;15.85;11.65;;;;;;;9.47;68.51;101143.75;4974203;28;20109;-59
2021/11/08 02:48:57;;;;;;;15.18;11.50;;;;;;;9.45;68.56;101156.09;4974189;28;20065;-60
2021/11/08 02:51:28;;;;;;;16.75;11.70;;;;;;;9.47;68.68;101157.72;4974073;28;20054;-59
2021/11/08 02:54:26;;;;;;;18.77;12.77;;;;;;;9.48;68.53;101156.78;4974304;28;20077;-59
2021/11/08 02:56:46;;;;;;;17.40;12.77;;;;;;;9.51;68.62;101160.19;4973828;28;20047;-59
2021/11/08 02:59:13;;;;;;;15.20;11.77;;;;;;;9.52;68.64;101162.72;4973343;28;20050;-59
2021/11/08 03:01:40;;;;;;;15.32;12.20;;;;;;;9.54;68.72;101162.69;4974065;28;20562;-59
2021/11/08 03:04:15;;;;;;;14.68;11.27;;;;;;;9.56;68.76;101151.19;4974199;28;20106;-59
2021/11/08 03:06:42;;;;;;;16.27;11.93;;;;;;;9.59;68.68;101151.06;4974000;28;20106;-58
2021/11/08 03:09:29;;;;;;;17.88;12.10;;;;;;;9.61;68.76;101159.69;4974206;28;20086;-60
2021/11/08 03:11:59;;;;;;;16.77;12.10;;;;;;;9.64;68.86;101149.06;4973791;28;20054;-59
2021/11/08 03:14:29;;;;;;;14.82;11.43;;;;;;;9.66;69.15;101146.38;4973705;28;20050;-59
2021/11/08 03:17:00;;;;;;;16.67;12.70;;;;;;;9.68;69.26;101146.31;4972543;28;20050;-59
2021/11/08 03:19:32;;;;;;;17.30;12.25;;;;;;;9.71;69.24;101156.66;4973773;28;20053;-59
2021/11/08 03:22:04;;;;;;;19.40;13.35;;;;;;;9.73;69.16;101158.28;4973778;28;20074;-59
2021/11/08 03:24:44;;;;;;;18.25;12.23;;;;;;;9.75;69.51;101156.44;4959994;28;20046;-58
2021/11/08 03:27:18;;;;;;;15.82;12.52;;;;;;;9.79;69.57;101157.16;4973642;28;20403;-59
2021/11/08 03:29:45;;;;;;;20.45;12.18;;;;;;;9.83;69.48;101153.47;4973443;28;20175;-63
2021/11/08 03:32:15;;;;;;;19.48;12.75;;;;;;;9.84;69.64;101154.31;4972530;28;20050;-59
2021/11/08 03:35:00;;;;;;;14.98;11.73;;;;;;;9.85;69.79;101156.00;4973169;28;20053;-63
2021/11/08 03:37:29;;;;;;;18.70;12.90;;;;;;;9.85;69.83;101156.84;4973488;28;20500;-59
2021/11/08 03:39:56;;;;;;;16.20;12.18;;;;;;;9.88;69.98;101166.34;4973564;28;20051;-59
2021/11/08 03:42:23;;;;;;;16.98;13.13;;;;;;;9.89;69.94;101157.56;4973479;28;20452;-59
2021/11/08 03:44:49;;;;;;;16.48;12.52;;;;;;;9.90;70.00;101160.13;4973327;28;20534;-59
2021/11/08 03:47:16;;;;;;;17.63;12.55;;;;;;;9.88;69.99;101163.72;4973461;28;20097;-59
2021/11/08 03:49:43;;;;;;;19.73;12.73;;;;;;;9.82;70.26;101169.25;4972112;28;20043;-59
2021/11/08 03:52:09;;;;;;;17.30;13.25;;;;;;;9.78;70.55;101164.16;4973383;28;20083;-59
2021/11/08 03:54:36;;;;;;;16.55;12.60;;;;;;;9.77;70.58;101169.47;4972943;28;20046;-59
2021/11/08 03:57:03;;;;;;;20.63;13.43;;;;;;;9.78;70.40;101172.00;4973281;28;20093;-58
2021/11/08 03:59:30;;;;;;;18.50;12.68;;;;;;;9.78;70.74;101181.66;4973335;28;20050;-59
2021/11/08 04:02:00;;;;;;;17.67;13.20;;;;;;;9.79;70.62;101181.59;4972086;28;20055;-59
2021/11/08 04:04:27;;;;;;;18.70;13.75;;;;;;;9.82;70.59;101193.69;4968644;28;20053;-58
2021/11/08 04:06:54;;;;;;;15.98;12.38;;;;;;;9.85;70.58;101192.69;4968091;28;20126;-58
2021/11/08 04:09:21;;;;;;;19.10;13.73;;;;;;;9.87;70.63;101188.25;4970009;28;20055;-58
2021/11/08 04:11:48;;;;;;;17.20;13.40;;;;;;;9.87;70.64;101181.22;4969810;28;20522;-59
2021/11/08 04:14:16;;;;;;;19.08;13.40;;;;;;;9.89;70.83;101199.50;4969741;28;20570;-59
2021/11/08 04:16:43;;;;;;;17.08;13.77;;;;;;;9.91;70.83;101187.19;4969602;28;20570;-59
2021/11/08 04:19:12;;;;;;;17.52;13.82;;;;;;;9.91;70.89;101188.00;4970097;28;20104;-59
2021/11/08 04:21:40;;;;;;;16.92;14.02;;;;;;;9.93;70.97;101177.47;4970393;28;20039;-59
2021/11/08 04:24:07;;;;;;;16.30;13.40;;;;;;;9.94;71.15;101174.78;4967999;28;20043;-59
2021/11/08 04:26:36;;;;;;;16.30;12.73;;;;;;;9.93;71.18;101178.31;4970155;28;20058;-59
2021/11/08 04:29:04;;;;;;;16.83;13.07;;;;;;;9.95;71.06;101170.38;4969918;28;20057;-58
2021/11/08 04:31:37;;;;;;;19.80;14.02;;;;;;;9.98;71.04;101172.88;4969483;28;20047;-59
2021/11/08 04:49:37;;;;;;;16.80;13.60;;;;;;;10.03;70.89;101167.38;4969779;28;20047;-59
2021/11/08 04:52:59;;;;;;;17.30;13.40;;;;;;;10.04;70.92;101166.47;4970860;28;20058;-60
2021/11/08 05:30:12;;;;;;;18.40;13.07;;;;;;;10.11;71.41;101209.84;4972586;28;20046;-59
2021/11/08 05:32:43;;;;;;;17.02;12.18;;;;;;;10.09;71.44;101211.69;4958517;28;20078;-62
2021/11/08 05:35:12;;;;;;;16.38;12.40;;;;;;;10.07;71.38;101214.38;4972623;28;20051;-59
2021/11/08 05:37:42;;;;;;;17.10;12.38;;;;;;;10.07;71.55;101217.00;4972306;28;20105;-59
2021/11/08 05:40:16;;;;;;;15.20;12.20;;;;;;;10.11;71.61;101231.66;4972615;28;20051;-58
2021/11/08 05:42:43;;;;;;;17.27;12.32;;;;;;;10.10;71.60;101227.34;4970594;28;20408;-59
2021/11/08 05:45:12;;;;;;;20.77;12.45;;;;;;;10.09;71.74;101233.53;4972149;28;20050;-63
2021/11/08 05:47:39;;;;;;;14.77;12.00;;;;;;;10.10;71.75;101235.19;4971995;28;20499;-62
2021/11/08 05:50:08;;;;;;;16.45;11.70;;;;;;;10.12;71.71;101238.59;4971934;28;20078;-60
2021/11/08 05:52:35;;;;;;;15.15;11.65;;;;;;;10.12;71.86;101238.59;4963592;28;20053;-60
2021/11/08 05:55:04;;;;;;;17.00;11.73;;;;;;;10.14;71.82;101241.16;4971792;28;20042;-56
2021/11/08 06:50:04;;;;;;;16.80;12.38;;;;;;;10.40;71.39;101291.59;4969825;28;20047;-61
2021/11/08 06:52:33;;;;;;;19.73;14.18;;;;;;;10.57;71.26;101288.16;4970810;28;20097;-59
2021/11/08 06:55:04;;;;;;;16.90;12.10;;;;;;;10.54;71.36;101285.66;4969745;28;20152;-59
2021/11/08 06:57:33;;;;;;;16.50;11.68;;;;;;;10.54;71.30;101297.03;4970803;28;20055;-59
2021/11/08 07:00:01;;;;;;;18.58;12.35;;;;;;;10.54;71.33;101304.91;4969989;28;20055;-58
2021/11/08 07:02:28;;;;;;;17.25;12.38;;;;;;;10.55;71.36;101305.72;4970589;28;20419;-59
2021/11/08 07:04:55;;;;;;;16.55;12.00;;;;;;;10.54;71.34;101306.66;4968744;28;20047;-59
2021/11/08 07:07:22;;;;;;;20.85;13.68;;;;;;;10.54;71.41;101310.16;4970582;28;20038;-59
2021/11/08 07:09:48;;;;;;;22.00;12.80;;;;;;;10.53;71.52;101305.81;4970533;28;20054;-58
2021/11/08 07:12:15;;;;;;;21.30;13.43;;;;;;;10.53;71.55;101305.81;4970382;28;20042;-58
2021/11/08 07:14:42;;;;;;;22.52;13.60;;;;;;;10.55;71.49;101317.09;4970181;28;20103;-58
2021/11/08 07:17:10;;;;;;;21.25;14.05;;;;;;;10.55;71.38;101319.72;4970432;28;20126;-58
2021/11/08 07:19:36;;;;;;;18.58;14.27;;;;;;;10.57;71.40;101322.28;4969825;28;20562;-59
2021/11/08 07:22:04;;;;;;;20.27;14.00;;;;;;;10.80;71.10;101330.81;4969384;28;20050;-59
2021/11/08 07:24:30;;;;;;;21.67;13.48;;;;;;;10.71;71.36;101345.25;4966789;28;20051;-60
2021/11/08 07:26:57;;;;;;;18.35;12.23;;;;;;;10.67;71.65;101343.69;4960639;28;20066;-59
2021/11/08 07:29:25;;;;;;;17.83;11.55;;;;;;;10.68;71.40;101346.25;4969942;28;20109;-59
2021/11/08 07:31:52;;;;;;;15.18;11.30;;;;;;;10.69;71.57;101342.69;4965345;28;20420;-59
2021/11/08 07:34:19;;;;;;;14.32;11.10;;;;;;;10.70;71.52;101341.75;4951605;28;20412;-59
2021/11/08 07:36:46;;;;;;;16.95;11.02;;;;;;;10.73;71.60;101341.63;4949169;28;20047;-59
2021/11/08 07:39:13;;;;;;;14.82;10.02;;;;;;;10.74;71.37;101345.94;4953147;28;20412;-59
2021/11/08 07:41:40;;;;;;;13.38;10.00;;;;;;;10.76;71.48;101343.25;4954661;28;20145;-60
2021/11/08 07:44:07;;;;;;;14.30;9.90;;;;;;;10.77;71.37;101351.03;4952531;28;20550;-61
2021/11/08 07:46:38;;;;;;;15.90;9.85;;;;;;;10.80;71.28;101355.28;4953577;28;20047;-60
2021/11/08 07:49:09;;;;;;;12.82;9.20;;;;;;;10.81;71.26;101350.91;4953287;28;20415;-59
2021/11/08 07:51:40;;;;;;;11.55;9.05;;;;;;;10.83;71.06;101356.91;4953512;28;20130;-61
2021/11/08 07:54:08;;;;;;;13.88;8.07;;;;;;;10.85;71.24;101350.66;4969340;28;20050;-60
2021/11/08 07:56:35;;;;;;;13.27;7.68;;;;;;;10.91;70.82;101354.78;4964754;28;20495;-60
2021/11/08 07:59:02;;;;;;;13.95;7.10;;;;;;;10.93;70.58;101361.66;4969434;28;20042;-59
2021/11/08 08:01:28;;;;;;;11.63;6.60;;;;;;;10.93;70.61;101368.69;4969512;28;20047;-59
2021/11/08 08:03:55;;;;;;;8.32;5.72;;;;;;;10.95;70.45;101364.22;4969558;28;20050;-60
2021/11/08 08:06:22;;;;;;;9.93;5.72;;;;;;;10.94;70.13;101384.38;4969646;28;20043;-60
2021/11/08 08:08:50;;;;;;;10.07;5.90;;;;;;;10.95;70.13;101385.22;4969430;28;20054;-61
2021/11/08 08:11:19;;;;;;;8.30;5.78;;;;;;;10.97;69.99;101399.13;4969434;28;20043;-60
2021/11/08 08:13:45;;;;;;;7.65;5.60;;;;;;;10.97;69.83;101398.28;4969158;28;20047;-60
2021/11/08 08:16:17;;;;;;;8.05;5.82;;;;;;;10.98;69.77;101403.44;4968328;28;20375;-61
2021/11/08 08:18:46;;;;;;;8.25;5.90;;;;;;;10.95;69.69;101409.69;4969198;28;20159;-59
2021/11/08 08:21:14;;;;;;;10.52;6.25;;;;;;;10.97;69.46;101416.66;4969245;28;20085;-60
2021/11/08 08:23:54;;;;;;;9.27;6.70;;;;;;;10.99;69.53;101420.06;4969460;28;20055;-60
2021/11/08 08:26:26;;;;;;;7.07;5.78;;;;;;;10.99;69.66;101427.94;4962271;28;20051;-62
2021/11/08 08:28:55;;;;;;;8.63;6.00;;;;;;;10.99;69.62;101427.94;4954461;28;20047;-61
2021/11/08 08:31:25;;;;;;;7.93;5.63;;;;;;;10.98;69.48;101439.38;4956037;28;20051;-60
2021/11/08 08:33:51;;;;;;;7.07;5.40;;;;;;;11.01;69.57;101449.72;4958196;28;20145;-60
2021/11/08 08:36:18;;;;;;;7.90;5.50;;;;;;;11.02;69.44;101452.28;4959053;28;20930;-60
2021/11/08 08:38:46;;;;;;;7.18;5.75;;;;;;;11.05;69.44;101457.38;4952464;28;20055;-60
2021/11/08 08:41:13;;;;;;;7.65;5.35;;;;;;;11.06;69.39;101456.47;4956663;28;20070;-60
2021/11/08 08:43:39;;;;;;;8.88;5.20;;;;;;;11.07;69.36;101455.56;4955583;28;20054;-60
2021/11/08 08:46:07;;;;;;;8.23;4.80;;;;;;;11.07;69.53;101462.56;4953414;28;20671;-59
2021/11/08 08:48:33;;;;;;;6.13;4.10;;;;;;;11.05;69.52;101462.66;4953285;28;20047;-59
2021/11/08 08:51:04;;;;;;;6.90;3.42;;;;;;;11.06;69.73;101474.03;4952048;28;20411;-59
2021/11/08 08:53:31;;;;;;;5.10;3.58;;;;;;;11.03;70.01;101472.34;4954020;28;20495;-60
2021/11/08 08:56:19;;;;;;;5.47;3.13;;;;;;;11.05;70.07;101472.31;4953822;28;20070;-60
2021/11/08 08:58:46;;;;;;;4.53;3.50;;;;;;;11.06;70.27;101474.84;4952910;28;20083;-60
2021/11/08 09:01:13;;;;;;;5.35;2.70;;;;;;;11.05;70.56;101483.66;4952683;28;20047;-60
2021/11/08 09:03:40;;;;;;;5.00;3.05;;;;;;;11.08;70.62;101487.91;4953649;28;20102;-60
2021/11/08 09:06:06;;;;;;;4.63;2.92;;;;;;;11.09;70.81;101494.88;4954537;28;20039;-60
2021/11/08 09:08:35;;;;;;;5.13;2.70;;;;;;;11.08;70.96;101494.03;4955729;28;20463;-60
2021/11/08 09:11:02;;;;;;;5.97;2.50;;;;;;;11.08;71.18;101501.03;4953208;28;20099;-61
2021/11/08 09:13:29;;;;;;;4.43;2.90;;;;;;;11.11;71.31;101500.91;4953722;28;20055;-60
2021/11/08 09:15:55;;;;;;;4.82;2.72;;;;;;;11.11;71.62;101499.13;4955739;28;20488;-60
2021/11/08 09:18:22;;;;;;;3.83;2.72;;;;;;;11.15;71.69;101498.97;4956231;28;20039;-60
2021/11/08 09:20:49;;;;;;;6.25;2.80;;;;;;;11.16;71.60;101506.81;4953400;28;20055;-59
2021/11/08 09:23:16;;;;;;;4.25;2.55;;;;;;;11.19;71.80;101508.44;4952953;28;20220;-60
2021/11/08 09:25:44;;;;;;;3.47;2.47;;;;;;;11.16;72.14;101513.81;4952890;28;20488;-60
2021/11/08 09:28:10;;;;;;;3.60;2.53;;;;;;;11.17;72.16;101511.13;4952158;28;20500;-60
2021/11/08 09:30:44;;;;;;;3.95;2.38;;;;;;;11.17;72.17;101519.00;4953617;28;20051;-62
2021/11/08 09:33:12;;;;;;;3.15;2.10;;;;;;;11.18;72.53;101523.34;4957342;28;20081;-60
2021/11/08 09:35:46;;;;;;;3.38;1.90;;;;;;;11.18;72.75;101531.22;4951967;28;20649;-60
2021/11/08 09:38:13;;;;;;;5.72;2.65;;;;;;;11.20;73.03;101541.66;4953054;28;20051;-60
2021/11/08 09:40:41;;;;;;;3.63;2.00;;;;;;;11.20;73.13;101545.13;4952667;28;20054;-60
2021/11/08 09:43:11;;;;;;;3.35;2.20;;;;;;;11.23;73.23;101547.59;4952528;28;20051;-59
2021/11/08 09:45:39;;;;;;;2.88;2.00;;;;;;;11.23;73.44;101552.88;4951592;28;20051;-61
2021/11/08 09:48:06;;;;;;;3.60;1.85;;;;;;;11.26;73.39;101562.38;4956220;28;20047;-60
2021/11/08 09:50:34;;;;;;;3.17;2.40;;;;;;;11.28;73.70;101564.00;4953464;28;20074;-60
2021/11/08 09:53:03;;;;;;;2.17;1.65;;;;;;;11.29;73.88;101570.13;4953668;28;20047;-60
2021/11/08 09:55:30;;;;;;;3.05;2.00;;;;;;;11.32;73.81;101571.78;4953182;28;20099;-60
2021/11/08 09:57:57;;;;;;;3.47;1.75;;;;;;;11.28;74.05;101578.94;4952480;28;20047;-61
2021/11/08 10:00:37;;;;;;;2.45;1.67;;;;;;;11.25;74.23;101585.19;4951916;28;20044;-60
2021/11/08 10:03:11;;;;;;;2.95;1.98;;;;;;;11.25;74.49;101581.72;4950990;28;20059;-60
2021/11/08 10:05:41;;;;;;;3.78;2.33;;;;;;;11.27;74.38;101575.47;4953348;28;20055;-60
2021/11/08 10:08:28;;;;;;;5.88;3.17;;;;;;;11.27;74.37;101583.34;4953150;28;20074;-61
2021/11/08 10:10:59;;;;;;;4.07;1.92;;;;;;;11.30;74.49;101576.22;4952392;28;20519;-60
2021/11/08 10:13:29;;;;;;;2.08;1.63;;;;;;;11.30;74.50;101569.22;4951895;28;20047;-61
2021/11/08 10:15:59;;;;;;;3.67;1.77;;;;;;;11.33;74.39;101569.06;4955196;28;20412;-62
2021/11/08 10:18:26;;;;;;;2.97;1.50;;;;;;;11.34;74.38;101564.66;4952293;28;20050;-61
2021/11/08 10:21:03;;;;;;;3.40;1.50;;;;;;;11.33;74.54;101563.81;4953451;28;20047;-60
2021/11/08 10:23:30;;;;;;;3.08;1.80;;;;;;;11.35;74.49;101556.72;4951917;28;20046;-61
2021/11/08 10:26:04;;;;;;;2.80;1.73;;;;;;;11.38;74.49;101555.72;4952006;28;20054;-62
2021/11/08 10:28:31;;;;;;;2.00;1.55;;;;;;;11.45;74.41;101557.13;4951139;28;20612;-60
2021/11/08 10:31:02;;;;;;;3.45;1.60;;;;;;;11.51;74.38;101545.47;4953503;28;20054;-60
2021/11/08 10:33:33;;;;;;;3.15;2.13;;;;;;;11.55;74.23;101554.91;4952999;28;20146;-60
2021/11/08 10:36:08;;;;;;;2.83;1.67;;;;;;;11.56;74.13;101548.72;4952864;28;20087;-60
2021/11/08 10:38:36;;;;;;;2.42;1.52;;;;;;;11.57;74.18;101555.69;4951376;28;20055;-61
2021/11/08 10:41:06;;;;;;;2.88;1.50;;;;;;;11.60;74.37;101542.41;4951748;28;20510;-60
2021/11/08 10:43:36;;;;;;;2.20;1.30;;;;;;;11.62;74.21;101547.56;4951100;28;20051;-60
2021/11/08 10:46:08;;;;;;;1.73;1.33;;;;;;;11.63;74.27;101546.66;4950459;28;20055;-60
2021/11/08 10:48:39;;;;;;;2.40;1.55;;;;;;;11.64;74.32;101554.47;4952994;28;20043;-60
2021/11/08 10:51:09;;;;;;;3.45;1.50;;;;;;;11.66;74.44;101554.41;4951730;28;20105;-59
2021/11/08 10:53:43;;;;;;;3.13;1.88;;;;;;;11.70;74.28;101551.53;4953330;28;20160;-60
2021/11/08 10:56:12;;;;;;;3.92;1.50;;;;;;;11.74;74.28;101552.25;4951493;28;20484;-60
2021/11/08 10:58:44;;;;;;;2.80;1.60;;;;;;;11.75;74.35;101554.78;4951837;28;20055;-59
2021/11/08 11:01:25;;;;;;;1.60;1.50;;;;;;;11.85;74.18;101549.09;4950742;28;20511;-60
2021/11/08 11:03:56;;;;;;;2.00;1.50;;;;;;;11.90;74.18;101547.94;4967436;28;20075;-61
2021/11/08 11:06:36;;;;;;;1.45;1.30;;;;;;;11.93;73.90;101544.31;4952278;28;20118;-61
2021/11/08 11:09:14;;;;;;;3.35;1.48;;;;;;;12.01;73.94;101536.94;4951745;28;20049;-60
2021/11/08 11:11:41;;;;;;;2.38;1.50;;;;;;;12.10;73.88;101527.72;4951820;28;20047;-59
2021/11/08 11:14:08;;;;;;;3.25;1.30;;;;;;;12.12;73.89;101531.13;4953691;28;20062;-60
2021/11/08 11:16:48;;;;;;;1.95;1.30;;;;;;;12.16;73.80;101529.19;4951508;28;20085;-60
2021/11/08 11:19:17;;;;;;;4.72;2.00;;;;;;;12.36;73.94;101528.16;4955622;28;20057;-62
2021/11/08 11:22:01;;;;;;;7.43;2.10;;;;;;;12.81;72.47;101523.19;4956974;28;20098;-61
2021/11/08 11:24:55;;;;;;;3.28;1.35;;;;;;;12.55;72.56;101523.63;4952537;28;20059;-60
2021/11/08 11:27:26;;;;;;;3.38;1.50;;;;;;;12.43;73.18;101523.44;4952658;28;20047;-61
2021/11/08 11:30:06;;;;;;;2.10;1.20;;;;;;;12.41;73.38;101531.41;4957211;28;20447;-60
2021/11/08 11:32:33;;;;;;;3.08;1.70;;;;;;;12.39;73.51;101517.47;4951947;28;20102;-60
2021/11/08 11:35:00;;;;;;;18.88;12.00;;;;;;;12.40;73.40;101519.19;4953038;28;20113;-60
2021/11/08 11:37:29;;;;;;;3.22;2.22;;;;;;;12.42;73.66;101517.31;4952914;28;20050;-60
2021/11/08 11:40:12;;;;;;;5.35;3.28;;;;;;;12.42;73.52;101504.16;4959642;28;20062;-60
2021/11/08 11:43:07;;;;;;;2.47;2.10;;;;;;;12.41;73.43;101515.63;4958291;28;20558;-61
2021/11/08 11:45:49;;;;;;;1.95;1.70;;;;;;;12.40;73.58;101512.16;4956271;28;20071;-60
2021/11/08 11:48:19;;;;;;;2.50;1.80;;;;;;;12.40;73.73;101506.00;4953602;28;20489;-61
2021/11/08 11:51:07;;;;;;;2.25;1.90;;;;;;;12.43;73.87;101505.00;4956173;28;20066;-61
2021/11/08 11:53:34;;;;;;;6.55;4.47;;;;;;;12.41;73.56;101511.19;4958619;28;20047;-60
2021/11/08 11:56:02;;;;;;;3.40;2.20;;;;;;;12.47;73.60;101515.31;4957250;28;20945;-60
2021/11/08 11:58:30;;;;;;;2.75;2.20;;;;;;;12.48;73.59;101510.88;4968441;28;20061;-61
2021/11/08 12:00:59;;;;;;;2.42;2.13;;;;;;;12.52;73.46;101509.78;4969019;28;20427;-60
2021/11/08 12:03:29;;;;;;;2.75;2.08;;;;;;;12.55;73.33;101514.91;4972668;28;20076;-61
2021/11/08 12:05:57;;;;;;;2.05;1.75;;;;;;;12.55;73.36;101504.38;4970454;28;20047;-60
2021/11/08 12:08:32;;;;;;;3.00;1.92;;;;;;;12.64;73.27;101511.78;4972674;28;20047;-61
2021/11/08 12:10:58;;;;;;;3.25;2.70;;;;;;;12.71;72.91;101509.69;4970065;28;20094;-62
2021/11/08 12:13:28;;;;;;;3.05;2.40;;;;;;;12.74;72.85;101510.34;4965311;28;20400;-60
2021/11/08 12:15:55;;;;;;;4.70;2.40;;;;;;;12.78;72.81;101510.19;4972971;28;20054;-61
2021/11/08 12:18:22;;;;;;;2.92;2.35;;;;;;;12.80;72.61;101496.00;4973325;28;20498;-60
2021/11/08 12:20:53;;;;;;;3.95;2.70;;;;;;;12.85;72.38;101498.38;4972610;28;20101;-61
2021/11/08 12:23:26;;;;;;;2.97;2.67;;;;;;;12.87;72.59;101501.78;4973565;28;20042;-61
2021/11/08 12:25:54;;;;;;;4.93;2.75;;;;;;;12.92;72.63;101493.66;4973010;28;20055;-61
2021/11/08 12:28:26;;;;;;;2.78;2.35;;;;;;;12.89;72.37;101492.88;4971840;28;20051;-60
2021/11/08 12:31:05;;;;;;;3.17;2.42;;;;;;;12.90;72.24;101491.94;4972984;28;20055;-62
2021/11/08 12:33:42;;;;;;;1.88;1.63;;;;;;;12.90;71.96;101493.75;4961424;28;20063;-62
2021/11/08 12:36:14;;;;;;;2.47;2.20;;;;;;;12.90;71.83;101489.31;4973029;28;20066;-61
2021/11/08 12:39:03;;;;;;;3.50;2.97;;;;;;;12.90;71.91;101494.56;4972785;28;20101;-61
2021/11/08 12:41:44;;;;;;;3.00;2.58;;;;;;;12.99;71.58;101495.00;4972987;28;20051;-62
2021/11/08 12:44:12;;;;;;;2.13;1.75;;;;;;;12.99;71.43;101487.97;4971916;28;20078;-61
2021/11/08 12:46:52;;;;;;;2.17;1.60;;;;;;;12.99;71.39;101492.34;4972504;28;20054;-61
2021/11/08 12:49:23;;;;;;;2.90;2.00;;;;;;;13.01;71.09;101480.81;4972620;28;20113;-60
2021/11/08 12:51:59;;;;;;;3.47;2.67;;;;;;;13.02;71.13;101486.94;4972532;28;20054;-60
2021/11/08 12:54:29;;;;;;;1.60;1.42;;;;;;;13.03;70.90;101492.13;4972032;28;20043;-60
2021/11/08 12:57:07;;;;;;;3.17;1.40;;;;;;;13.14;70.57;101480.13;4971717;28;20105;-59
2021/11/08 12:59:43;;;;;;;2.10;1.50;;;;;;;13.19;70.14;101472.81;4971103;28;20054;-59
2021/11/08 13:02:20;;;;;;;2.78;1.30;;;;;;;13.20;69.71;101475.38;4972577;28;20047;-59
2021/11/08 13:04:48;;;;;;;3.55;1.88;;;;;;;13.22;69.64;101470.88;4962810;28;20047;-59
2021/11/08 13:07:16;;;;;;;7.55;4.57;;;;;;;13.25;69.21;101466.38;4966063;28;20050;-59
2021/11/08 13:09:47;;;;;;;12.02;9.07;;;;;;;13.23;68.96;101469.94;4971964;28;20081;-59
2021/11/08 13:12:28;;;;;;;2.00;1.60;;;;;;;13.17;68.98;101472.06;4971940;28;20050;-58
2021/11/08 13:15:07;;;;;;;2.22;1.60;;;;;;;13.07;68.90;101467.28;4964814;28;20090;-59
2021/11/08 13:17:54;;;;;;;2.15;1.40;;;;;;;13.04;68.84;101466.63;4963523;28;20050;-59
2021/11/08 13:20:25;;;;;;;2.40;1.20;;;;;;;13.00;68.93;101476.50;4952901;28;20043;-67